sensor_id;sensor_type;location;lat;lon;timestamp;P1;durP1;ratioP1;P2;durP2;ratioP2
8161;SDS011;16778;48.154;15.094;2023-04-03T00:00:41;2.70;;;1.80;;
8161;SDS011;16778;48.154;15.094;2023-04-03T00:03:07;3.43;;;1.77;;
8161;SDS011;16778;48.154;15.094;2023-04-03T00:05:32;2.27;;;1.60;;
8161;SDS011;16778;48.154;15.094;2023-04-03T00:07:58;2.53;;;1.70;;
8161;SDS011;16778;48.154;15.094;2023-04-03T00:10:24;3.40;;;1.90;;
8161;SDS011;16778;48.154;15.094;2023-04-03T00:12:50;3.23;;;1.70;;
8161;SDS011;16778;48.154;15.094;2023-04-03T00:15:16;4.23;;;2.00;;
8161;SDS011;16778;48.154;15.094;2023-04-03T00:17:41;3.27;;;2.30;;
8161;SDS011;16778;48.154;15.094;2023-04-03T00:20:07;3.70;;;1.90;;
8161;SDS011;16778;48.154;15.094;2023-04-03T00:22:33;3.00;;;2.00;;
8161;SDS011;16778;48.154;15.094;2023-04-03T00:24:59;6.20;;;2.10;;
8161;SDS011;16778;48.154;15.094;2023-04-03T00:27:25;3.37;;;1.77;;
8161;SDS011;16778;48.154;15.094;2023-04-03T00:29:50;2.70;;;1.73;;
8161;SDS011;16778;48.154;15.094;2023-04-03T00:32:16;2.07;;;1.40;;
8161;SDS011;16778;48.154;15.094;2023-04-03T00:34:42;3.70;;;1.60;;
8161;SDS011;16778;48.154;15.094;2023-04-03T00:37:07;4.93;;;1.90;;
8161;SDS011;16778;48.154;15.094;2023-04-03T00:39:33;2.40;;;1.80;;
8161;SDS011;16778;48.154;15.094;2023-04-03T00:41:59;1.77;;;1.33;;
8161;SDS011;16778;48.154;15.094;2023-04-03T00:46:53;4.00;;;1.70;;
8161;SDS011;16778;48.154;15.094;2023-04-03T00:49:19;3.20;;;1.90;;
8161;SDS011;16778;48.154;15.094;2023-04-03T00:51:45;2.13;;;1.70;;
8161;SDS011;16778;48.154;15.094;2023-04-03T00:54:11;3.00;;;1.73;;
8161;SDS011;16778;48.154;15.094;2023-04-03T00:56:37;3.10;;;1.90;;
8161;SDS011;16778;48.154;15.094;2023-04-03T00:59:46;2.47;;;1.77;;
8161;SDS011;16778;48.154;15.094;2023-04-03T01:01:52;3.23;;;1.80;;
8161;SDS011;16778;48.154;15.094;2023-04-03T01:04:37;3.03;;;1.90;;
8161;SDS011;16778;48.154;15.094;2023-04-03T01:09:40;3.60;;;2.20;;
8161;SDS011;16778;48.154;15.094;2023-04-03T01:12:13;4.07;;;2.13;;
8161;SDS011;16778;48.154;15.094;2023-04-03T01:14:44;2.73;;;1.70;;
8161;SDS011;16778;48.154;15.094;2023-04-03T01:22:41;3.93;;;2.20;;
8161;SDS011;16778;48.154;15.094;2023-04-03T01:25:28;3.23;;;2.10;;
8161;SDS011;16778;48.154;15.094;2023-04-03T01:27:54;5.80;;;2.17;;
8161;SDS011;16778;48.154;15.094;2023-04-03T01:30:20;2.97;;;2.33;;
8161;SDS011;16778;48.154;15.094;2023-04-03T01:32:51;3.03;;;2.17;;
8161;SDS011;16778;48.154;15.094;2023-04-03T01:35:16;3.60;;;2.20;;
8161;SDS011;16778;48.154;15.094;2023-04-03T01:37:42;3.13;;;1.93;;
8161;SDS011;16778;48.154;15.094;2023-04-03T01:40:07;3.77;;;2.10;;
8161;SDS011;16778;48.154;15.094;2023-04-03T01:42:33;2.70;;;2.10;;
8161;SDS011;16778;48.154;15.094;2023-04-03T01:44:59;3.17;;;2.47;;
8161;SDS011;16778;48.154;15.094;2023-04-03T01:47:25;3.10;;;2.00;;
8161;SDS011;16778;48.154;15.094;2023-04-03T01:49:50;3.97;;;1.93;;
8161;SDS011;16778;48.154;15.094;2023-04-03T01:52:16;4.53;;;2.50;;
8161;SDS011;16778;48.154;15.094;2023-04-03T01:54:42;6.13;;;2.10;;
8161;SDS011;16778;48.154;15.094;2023-04-03T01:57:07;2.97;;;2.03;;
8161;SDS011;16778;48.154;15.094;2023-04-03T01:59:33;3.17;;;1.83;;
8161;SDS011;16778;48.154;15.094;2023-04-03T02:02:01;2.60;;;1.80;;
8161;SDS011;16778;48.154;15.094;2023-04-03T02:04:27;3.43;;;2.03;;
8161;SDS011;16778;48.154;15.094;2023-04-03T02:06:52;3.87;;;2.07;;
8161;SDS011;16778;48.154;15.094;2023-04-03T02:09:18;2.93;;;2.13;;
8161;SDS011;16778;48.154;15.094;2023-04-03T02:11:44;2.93;;;2.03;;
8161;SDS011;16778;48.154;15.094;2023-04-03T02:14:09;3.70;;;1.87;;
8161;SDS011;16778;48.154;15.094;2023-04-03T02:16:35;3.47;;;1.70;;
8161;SDS011;16778;48.154;15.094;2023-04-03T02:19:00;2.97;;;2.10;;
8161;SDS011;16778;48.154;15.094;2023-04-03T02:21:26;4.83;;;2.13;;
8161;SDS011;16778;48.154;15.094;2023-04-03T02:23:52;3.40;;;2.00;;
8161;SDS011;16778;48.154;15.094;2023-04-03T02:26:18;3.33;;;2.27;;
8161;SDS011;16778;48.154;15.094;2023-04-03T02:28:44;3.00;;;2.00;;
8161;SDS011;16778;48.154;15.094;2023-04-03T02:31:10;1.93;;;1.70;;
8161;SDS011;16778;48.154;15.094;2023-04-03T02:33:36;2.47;;;1.80;;
8161;SDS011;16778;48.154;15.094;2023-04-03T02:36:03;5.27;;;2.20;;
8161;SDS011;16778;48.154;15.094;2023-04-03T02:38:30;3.53;;;2.17;;
8161;SDS011;16778;48.154;15.094;2023-04-03T02:41:02;1.97;;;1.77;;
8161;SDS011;16778;48.154;15.094;2023-04-03T02:43:29;3.23;;;1.97;;
8161;SDS011;16778;48.154;15.094;2023-04-03T02:45:55;3.23;;;2.00;;
8161;SDS011;16778;48.154;15.094;2023-04-03T02:48:21;2.60;;;1.67;;
8161;SDS011;16778;48.154;15.094;2023-04-03T02:50:46;3.33;;;1.70;;
8161;SDS011;16778;48.154;15.094;2023-04-03T02:53:12;2.93;;;1.97;;
8161;SDS011;16778;48.154;15.094;2023-04-03T02:55:38;2.87;;;1.90;;
8161;SDS011;16778;48.154;15.094;2023-04-03T02:58:03;2.77;;;1.80;;
8161;SDS011;16778;48.154;15.094;2023-04-03T03:00:29;2.90;;;1.97;;
8161;SDS011;16778;48.154;15.094;2023-04-03T03:02:55;2.03;;;1.80;;
8161;SDS011;16778;48.154;15.094;2023-04-03T03:05:20;4.00;;;1.90;;
8161;SDS011;16778;48.154;15.094;2023-04-03T03:07:46;4.50;;;2.53;;
8161;SDS011;16778;48.154;15.094;2023-04-03T03:10:12;2.67;;;1.97;;
8161;SDS011;16778;48.154;15.094;2023-04-03T03:12:38;2.27;;;1.70;;
8161;SDS011;16778;48.154;15.094;2023-04-03T03:15:03;2.60;;;1.73;;
8161;SDS011;16778;48.154;15.094;2023-04-03T03:17:29;2.00;;;1.33;;
8161;SDS011;16778;48.154;15.094;2023-04-03T03:19:55;2.27;;;1.63;;
8161;SDS011;16778;48.154;15.094;2023-04-03T03:22:21;5.30;;;2.17;;
8161;SDS011;16778;48.154;15.094;2023-04-03T03:24:46;2.00;;;1.40;;
8161;SDS011;16778;48.154;15.094;2023-04-03T03:27:12;2.00;;;1.80;;
8161;SDS011;16778;48.154;15.094;2023-04-03T03:29:37;2.67;;;1.67;;
8161;SDS011;16778;48.154;15.094;2023-04-03T03:32:03;3.23;;;1.97;;
8161;SDS011;16778;48.154;15.094;2023-04-03T03:34:29;3.40;;;2.00;;
8161;SDS011;16778;48.154;15.094;2023-04-03T03:36:55;3.40;;;1.83;;
8161;SDS011;16778;48.154;15.094;2023-04-03T03:39:21;3.37;;;2.03;;
8161;SDS011;16778;48.154;15.094;2023-04-03T03:41:46;3.87;;;1.80;;
8161;SDS011;16778;48.154;15.094;2023-04-03T03:44:14;2.67;;;2.00;;
8161;SDS011;16778;48.154;15.094;2023-04-03T03:46:40;3.70;;;2.17;;
8161;SDS011;16778;48.154;15.094;2023-04-03T03:49:05;3.43;;;1.90;;
8161;SDS011;16778;48.154;15.094;2023-04-03T03:51:31;3.10;;;1.70;;
8161;SDS011;16778;48.154;15.094;2023-04-03T03:53:57;2.23;;;1.70;;
8161;SDS011;16778;48.154;15.094;2023-04-03T03:56:22;3.53;;;1.90;;
8161;SDS011;16778;48.154;15.094;2023-04-03T03:58:48;3.50;;;2.03;;
8161;SDS011;16778;48.154;15.094;2023-04-03T04:01:14;3.73;;;2.07;;
8161;SDS011;16778;48.154;15.094;2023-04-03T04:03:41;2.97;;;1.83;;
8161;SDS011;16778;48.154;15.094;2023-04-03T04:06:07;2.23;;;1.47;;
8161;SDS011;16778;48.154;15.094;2023-04-03T04:08:33;2.93;;;1.70;;
8161;SDS011;16778;48.154;15.094;2023-04-03T04:10:58;3.17;;;1.50;;
8161;SDS011;16778;48.154;15.094;2023-04-03T04:13:24;2.23;;;1.80;;
8161;SDS011;16778;48.154;15.094;2023-04-03T04:15:50;3.30;;;1.90;;
8161;SDS011;16778;48.154;15.094;2023-04-03T04:18:15;2.57;;;1.80;;
8161;SDS011;16778;48.154;15.094;2023-04-03T04:20:44;3.30;;;1.90;;
8161;SDS011;16778;48.154;15.094;2023-04-03T04:23:10;3.37;;;1.70;;
8161;SDS011;16778;48.154;15.094;2023-04-03T04:25:36;6.67;;;2.17;;
8161;SDS011;16778;48.154;15.094;2023-04-03T04:28:01;4.07;;;1.70;;
8161;SDS011;16778;48.154;15.094;2023-04-03T04:30:27;2.83;;;1.70;;
8161;SDS011;16778;48.154;15.094;2023-04-03T04:32:53;1.87;;;1.40;;
8161;SDS011;16778;48.154;15.094;2023-04-03T04:35:18;5.60;;;2.00;;
8161;SDS011;16778;48.154;15.094;2023-04-03T04:37:44;1.63;;;1.20;;
8161;SDS011;16778;48.154;15.094;2023-04-03T04:40:10;3.03;;;1.90;;
8161;SDS011;16778;48.154;15.094;2023-04-03T04:42:36;1.97;;;1.50;;
8161;SDS011;16778;48.154;15.094;2023-04-03T04:45:01;3.87;;;1.80;;
8161;SDS011;16778;48.154;15.094;2023-04-03T04:47:28;4.57;;;1.70;;
8161;SDS011;16778;48.154;15.094;2023-04-03T04:49:54;2.37;;;1.77;;
8161;SDS011;16778;48.154;15.094;2023-04-03T04:52:20;2.87;;;1.70;;
8161;SDS011;16778;48.154;15.094;2023-04-03T04:54:46;5.23;;;2.03;;
8161;SDS011;16778;48.154;15.094;2023-04-03T04:57:11;3.07;;;1.87;;
8161;SDS011;16778;48.154;15.094;2023-04-03T04:59:37;3.50;;;1.90;;
8161;SDS011;16778;48.154;15.094;2023-04-03T05:02:03;3.23;;;1.90;;
8161;SDS011;16778;48.154;15.094;2023-04-03T05:04:28;4.57;;;2.40;;
8161;SDS011;16778;48.154;15.094;2023-04-03T05:06:54;3.23;;;1.97;;
8161;SDS011;16778;48.154;15.094;2023-04-03T05:09:19;4.33;;;2.00;;
8161;SDS011;16778;48.154;15.094;2023-04-03T05:11:45;3.13;;;1.97;;
8161;SDS011;16778;48.154;15.094;2023-04-03T05:14:11;2.07;;;1.40;;
8161;SDS011;16778;48.154;15.094;2023-04-03T05:16:37;4.30;;;2.20;;
8161;SDS011;16778;48.154;15.094;2023-04-03T05:19:03;2.97;;;2.07;;
8161;SDS011;16778;48.154;15.094;2023-04-03T05:21:29;2.37;;;1.60;;
8161;SDS011;16778;48.154;15.094;2023-04-03T05:23:57;2.37;;;1.60;;
8161;SDS011;16778;48.154;15.094;2023-04-03T05:26:24;4.20;;;1.90;;
8161;SDS011;16778;48.154;15.094;2023-04-03T05:28:51;4.17;;;2.03;;
8161;SDS011;16778;48.154;15.094;2023-04-03T05:31:16;2.07;;;1.60;;
8161;SDS011;16778;48.154;15.094;2023-04-03T05:33:42;2.83;;;1.80;;
8161;SDS011;16778;48.154;15.094;2023-04-03T05:36:08;2.17;;;1.60;;
8161;SDS011;16778;48.154;15.094;2023-04-03T05:38:34;3.33;;;1.50;;
8161;SDS011;16778;48.154;15.094;2023-04-03T05:40:59;2.93;;;1.57;;
8161;SDS011;16778;48.154;15.094;2023-04-03T05:43:25;7.80;;;2.07;;
8161;SDS011;16778;48.154;15.094;2023-04-03T05:45:51;3.73;;;1.67;;
8161;SDS011;16778;48.154;15.094;2023-04-03T05:48:17;4.47;;;1.70;;
8161;SDS011;16778;48.154;15.094;2023-04-03T05:50:43;5.63;;;1.80;;
8161;SDS011;16778;48.154;15.094;2023-04-03T05:53:20;2.10;;;1.47;;
8161;SDS011;16778;48.154;15.094;2023-04-03T05:55:47;2.37;;;1.30;;
8161;SDS011;16778;48.154;15.094;2023-04-03T05:58:13;1.90;;;1.27;;
8161;SDS011;16778;48.154;15.094;2023-04-03T06:00:39;2.63;;;1.20;;
8161;SDS011;16778;48.154;15.094;2023-04-03T06:03:05;2.13;;;1.30;;
8161;SDS011;16778;48.154;15.094;2023-04-03T06:05:31;1.87;;;1.30;;
8161;SDS011;16778;48.154;15.094;2023-04-03T06:07:57;2.77;;;1.60;;
8161;SDS011;16778;48.154;15.094;2023-04-03T06:10:22;2.23;;;1.37;;
8161;SDS011;16778;48.154;15.094;2023-04-03T06:12:49;1.87;;;1.40;;
8161;SDS011;16778;48.154;15.094;2023-04-03T06:15:15;5.87;;;1.60;;
8161;SDS011;16778;48.154;15.094;2023-04-03T06:17:42;1.93;;;1.40;;
8161;SDS011;16778;48.154;15.094;2023-04-03T06:20:08;2.13;;;1.50;;
8161;SDS011;16778;48.154;15.094;2023-04-03T06:22:35;2.50;;;1.10;;
8161;SDS011;16778;48.154;15.094;2023-04-03T06:25:01;1.63;;;1.30;;
8161;SDS011;16778;48.154;15.094;2023-04-03T06:27:27;5.40;;;1.30;;
8161;SDS011;16778;48.154;15.094;2023-04-03T06:29:53;2.30;;;1.37;;
8161;SDS011;16778;48.154;15.094;2023-04-03T06:32:18;1.30;;;1.00;;
8161;SDS011;16778;48.154;15.094;2023-04-03T06:34:44;1.07;;;0.90;;
8161;SDS011;16778;48.154;15.094;2023-04-03T06:37:17;3.00;;;1.40;;
8161;SDS011;16778;48.154;15.094;2023-04-03T06:39:45;1.77;;;1.13;;
8161;SDS011;16778;48.154;15.094;2023-04-03T06:42:11;2.33;;;1.10;;
8161;SDS011;16778;48.154;15.094;2023-04-03T06:44:37;2.07;;;1.20;;
8161;SDS011;16778;48.154;15.094;2023-04-03T06:47:03;2.17;;;1.23;;
8161;SDS011;16778;48.154;15.094;2023-04-03T06:49:28;2.73;;;1.43;;
8161;SDS011;16778;48.154;15.094;2023-04-03T06:51:54;2.10;;;1.37;;
8161;SDS011;16778;48.154;15.094;2023-04-03T06:54:21;1.87;;;1.20;;
8161;SDS011;16778;48.154;15.094;2023-04-03T06:56:47;1.87;;;1.47;;
8161;SDS011;16778;48.154;15.094;2023-04-03T06:59:13;2.70;;;1.60;;
8161;SDS011;16778;48.154;15.094;2023-04-03T07:01:39;6.20;;;1.73;;
8161;SDS011;16778;48.154;15.094;2023-04-03T07:04:05;5.17;;;1.87;;
8161;SDS011;16778;48.154;15.094;2023-04-03T07:06:32;3.40;;;1.77;;
8161;SDS011;16778;48.154;15.094;2023-04-03T07:08:58;3.73;;;1.90;;
8161;SDS011;16778;48.154;15.094;2023-04-03T07:11:25;2.90;;;1.60;;
8161;SDS011;16778;48.154;15.094;2023-04-03T07:13:51;2.43;;;1.43;;
8161;SDS011;16778;48.154;15.094;2023-04-03T07:16:17;3.57;;;1.67;;
8161;SDS011;16778;48.154;15.094;2023-04-03T07:18:43;3.63;;;1.70;;
8161;SDS011;16778;48.154;15.094;2023-04-03T07:21:08;2.97;;;1.30;;
8161;SDS011;16778;48.154;15.094;2023-04-03T07:23:34;2.37;;;1.70;;
8161;SDS011;16778;48.154;15.094;2023-04-03T07:26:00;2.03;;;1.30;;
8161;SDS011;16778;48.154;15.094;2023-04-03T07:28:26;6.17;;;1.60;;
8161;SDS011;16778;48.154;15.094;2023-04-03T07:30:53;2.90;;;1.20;;
8161;SDS011;16778;48.154;15.094;2023-04-03T07:33:21;3.03;;;1.80;;
8161;SDS011;16778;48.154;15.094;2023-04-03T07:35:47;1.77;;;1.20;;
8161;SDS011;16778;48.154;15.094;2023-04-03T07:38:14;2.30;;;1.60;;
8161;SDS011;16778;48.154;15.094;2023-04-03T07:40:41;2.10;;;1.20;;
8161;SDS011;16778;48.154;15.094;2023-04-03T07:43:11;1.83;;;1.40;;
8161;SDS011;16778;48.154;15.094;2023-04-03T07:45:36;2.63;;;1.43;;
8161;SDS011;16778;48.154;15.094;2023-04-03T07:48:02;1.60;;;1.40;;
8161;SDS011;16778;48.154;15.094;2023-04-03T07:50:28;3.10;;;1.30;;
8161;SDS011;16778;48.154;15.094;2023-04-03T07:52:55;1.40;;;1.10;;
8161;SDS011;16778;48.154;15.094;2023-04-03T07:55:22;2.20;;;1.30;;
8161;SDS011;16778;48.154;15.094;2023-04-03T07:57:48;3.27;;;1.40;;
8161;SDS011;16778;48.154;15.094;2023-04-03T08:00:14;1.70;;;0.90;;
8161;SDS011;16778;48.154;15.094;2023-04-03T08:02:42;1.70;;;1.13;;
8161;SDS011;16778;48.154;15.094;2023-04-03T08:05:09;3.53;;;1.47;;
8161;SDS011;16778;48.154;15.094;2023-04-03T08:07:36;2.37;;;1.17;;
8161;SDS011;16778;48.154;15.094;2023-04-03T08:10:02;2.50;;;1.30;;
8161;SDS011;16778;48.154;15.094;2023-04-03T08:12:28;3.43;;;1.00;;
8161;SDS011;16778;48.154;15.094;2023-04-03T08:14:54;1.30;;;1.03;;
8161;SDS011;16778;48.154;15.094;2023-04-03T08:17:20;3.97;;;1.20;;
8161;SDS011;16778;48.154;15.094;2023-04-03T08:19:46;0.80;;;0.80;;
8161;SDS011;16778;48.154;15.094;2023-04-03T08:22:12;1.53;;;1.00;;
8161;SDS011;16778;48.154;15.094;2023-04-03T08:24:37;2.60;;;1.30;;
8161;SDS011;16778;48.154;15.094;2023-04-03T08:27:03;2.10;;;0.90;;
8161;SDS011;16778;48.154;15.094;2023-04-03T08:29:29;1.23;;;1.00;;
8161;SDS011;16778;48.154;15.094;2023-04-03T08:31:55;3.63;;;0.90;;
8161;SDS011;16778;48.154;15.094;2023-04-03T08:34:20;2.20;;;1.30;;
8161;SDS011;16778;48.154;15.094;2023-04-03T08:36:46;1.57;;;0.77;;
8161;SDS011;16778;48.154;15.094;2023-04-03T08:39:12;1.70;;;1.20;;
8161;SDS011;16778;48.154;15.094;2023-04-03T08:49:14;2.03;;;1.00;;
8161;SDS011;16778;48.154;15.094;2023-04-03T08:51:48;1.70;;;1.17;;
8161;SDS011;16778;48.154;15.094;2023-04-03T08:54:27;1.73;;;1.27;;
8161;SDS011;16778;48.154;15.094;2023-04-03T08:57:02;2.87;;;1.10;;
8161;SDS011;16778;48.154;15.094;2023-04-03T08:59:32;1.87;;;1.00;;
8161;SDS011;16778;48.154;15.094;2023-04-03T09:02:00;2.67;;;1.00;;
8161;SDS011;16778;48.154;15.094;2023-04-03T09:04:31;1.23;;;0.90;;
8161;SDS011;16778;48.154;15.094;2023-04-03T09:07:00;2.40;;;1.00;;
8161;SDS011;16778;48.154;15.094;2023-04-03T09:09:38;1.20;;;0.80;;
8161;SDS011;16778;48.154;15.094;2023-04-03T09:12:15;2.53;;;1.10;;
8161;SDS011;16778;48.154;15.094;2023-04-03T09:14:52;0.87;;;0.80;;
8161;SDS011;16778;48.154;15.094;2023-04-03T09:17:24;2.37;;;0.90;;
8161;SDS011;16778;48.154;15.094;2023-04-03T09:19:58;1.80;;;0.90;;
8161;SDS011;16778;48.154;15.094;2023-04-03T09:22:28;5.10;;;1.10;;
8161;SDS011;16778;48.154;15.094;2023-04-03T09:24:59;1.33;;;0.73;;
8161;SDS011;16778;48.154;15.094;2023-04-03T09:27:27;1.23;;;0.90;;
8161;SDS011;16778;48.154;15.094;2023-04-03T09:29:56;1.70;;;1.00;;
8161;SDS011;16778;48.154;15.094;2023-04-03T09:32:27;1.70;;;1.10;;
8161;SDS011;16778;48.154;15.094;2023-04-03T09:34:59;2.57;;;0.87;;
8161;SDS011;16778;48.154;15.094;2023-04-03T09:37:41;2.70;;;1.33;;
8161;SDS011;16778;48.154;15.094;2023-04-03T09:42:56;2.07;;;0.70;;
8161;SDS011;16778;48.154;15.094;2023-04-03T09:45:25;2.03;;;0.83;;
8161;SDS011;16778;48.154;15.094;2023-04-03T09:48:05;2.60;;;0.93;;
8161;SDS011;16778;48.154;15.094;2023-04-03T09:50:37;1.90;;;0.93;;
8161;SDS011;16778;48.154;15.094;2023-04-03T09:53:05;3.13;;;0.90;;
8161;SDS011;16778;48.154;15.094;2023-04-03T09:55:32;1.57;;;0.80;;
8161;SDS011;16778;48.154;15.094;2023-04-03T09:58:01;2.07;;;1.10;;
8161;SDS011;16778;48.154;15.094;2023-04-03T10:02:59;3.03;;;1.20;;
8161;SDS011;16778;48.154;15.094;2023-04-03T10:05:27;3.33;;;0.70;;
8161;SDS011;16778;48.154;15.094;2023-04-03T10:10:34;2.70;;;0.90;;
8161;SDS011;16778;48.154;15.094;2023-04-03T10:13:09;1.47;;;0.97;;
8161;SDS011;16778;48.154;15.094;2023-04-03T10:16:00;1.90;;;0.80;;
8161;SDS011;16778;48.154;15.094;2023-04-03T10:21:31;1.70;;;1.07;;
8161;SDS011;16778;48.154;15.094;2023-04-03T10:35:18;1.07;;;0.70;;
8161;SDS011;16778;48.154;15.094;2023-04-03T10:40:49;3.13;;;1.20;;
8161;SDS011;16778;48.154;15.094;2023-04-03T10:43:27;0.83;;;0.43;;
8161;SDS011;16778;48.154;15.094;2023-04-03T10:46:03;2.30;;;1.23;;
8161;SDS011;16778;48.154;15.094;2023-04-03T10:48:43;2.10;;;1.37;;
8161;SDS011;16778;48.154;15.094;2023-04-03T10:54:17;1.63;;;1.00;;
8161;SDS011;16778;48.154;15.094;2023-04-03T10:56:54;4.07;;;1.10;;
8161;SDS011;16778;48.154;15.094;2023-04-03T11:02:45;1.90;;;1.17;;
8161;SDS011;16778;48.154;15.094;2023-04-03T11:04:50;1.73;;;1.03;;
8161;SDS011;16778;48.154;15.094;2023-04-03T11:07:27;2.13;;;0.97;;
8161;SDS011;16778;48.154;15.094;2023-04-03T11:10:09;1.43;;;1.03;;
8161;SDS011;16778;48.154;15.094;2023-04-03T11:13:16;1.27;;;0.90;;
8161;SDS011;16778;48.154;15.094;2023-04-03T11:15:37;3.03;;;0.90;;
8161;SDS011;16778;48.154;15.094;2023-04-03T11:18:06;1.60;;;1.13;;
8161;SDS011;16778;48.154;15.094;2023-04-03T11:20:36;2.07;;;1.47;;
8161;SDS011;16778;48.154;15.094;2023-04-03T11:23:04;3.13;;;1.40;;
8161;SDS011;16778;48.154;15.094;2023-04-03T11:25:34;0.77;;;0.60;;
8161;SDS011;16778;48.154;15.094;2023-04-03T11:28:05;1.13;;;0.90;;
8161;SDS011;16778;48.154;15.094;2023-04-03T11:33:24;2.73;;;1.37;;
8161;SDS011;16778;48.154;15.094;2023-04-03T11:36:04;3.53;;;1.63;;
8161;SDS011;16778;48.154;15.094;2023-04-03T11:38:46;2.00;;;1.30;;
8161;SDS011;16778;48.154;15.094;2023-04-03T11:41:13;2.30;;;1.40;;
8161;SDS011;16778;48.154;15.094;2023-04-03T11:44:04;5.43;;;1.43;;
8161;SDS011;16778;48.154;15.094;2023-04-03T11:46:50;1.23;;;1.13;;
8161;SDS011;16778;48.154;15.094;2023-04-03T12:05:51;1.90;;;1.13;;
8161;SDS011;16778;48.154;15.094;2023-04-03T12:08:24;2.00;;;1.20;;
8161;SDS011;16778;48.154;15.094;2023-04-03T12:13:36;2.37;;;1.23;;
8161;SDS011;16778;48.154;15.094;2023-04-03T12:16:03;1.33;;;1.07;;
8161;SDS011;16778;48.154;15.094;2023-04-03T12:24:02;2.50;;;1.37;;
8161;SDS011;16778;48.154;15.094;2023-04-03T12:42:56;1.20;;;1.00;;
8161;SDS011;16778;48.154;15.094;2023-04-03T12:48:18;1.87;;;1.40;;
8161;SDS011;16778;48.154;15.094;2023-04-03T12:50:47;2.13;;;1.00;;
8161;SDS011;16778;48.154;15.094;2023-04-03T12:56:19;1.67;;;1.00;;
8161;SDS011;16778;48.154;15.094;2023-04-03T12:58:53;3.27;;;1.67;;
8161;SDS011;16778;48.154;15.094;2023-04-03T13:01:23;1.07;;;0.83;;
8161;SDS011;16778;48.154;15.094;2023-04-03T13:03:51;3.03;;;1.10;;
8161;SDS011;16778;48.154;15.094;2023-04-03T13:06:19;2.20;;;1.47;;
8161;SDS011;16778;48.154;15.094;2023-04-03T13:08:57;2.97;;;1.30;;
8161;SDS011;16778;48.154;15.094;2023-04-03T13:11:25;3.47;;;1.40;;
8161;SDS011;16778;48.154;15.094;2023-04-03T13:14:05;1.93;;;1.43;;
8161;SDS011;16778;48.154;15.094;2023-04-03T13:16:39;1.57;;;1.17;;
8161;SDS011;16778;48.154;15.094;2023-04-03T13:19:06;1.57;;;1.03;;
8161;SDS011;16778;48.154;15.094;2023-04-03T13:21:40;2.97;;;1.40;;
8161;SDS011;16778;48.154;15.094;2023-04-03T13:24:06;3.67;;;1.37;;
8161;SDS011;16778;48.154;15.094;2023-04-03T13:26:33;3.90;;;1.20;;
8161;SDS011;16778;48.154;15.094;2023-04-03T13:29:01;2.03;;;1.20;;
8161;SDS011;16778;48.154;15.094;2023-04-03T13:31:36;1.37;;;1.07;;
8161;SDS011;16778;48.154;15.094;2023-04-03T13:36:36;1.10;;;1.00;;
8161;SDS011;16778;48.154;15.094;2023-04-03T13:39:17;2.17;;;1.30;;
8161;SDS011;16778;48.154;15.094;2023-04-03T13:41:50;3.67;;;2.00;;
8161;SDS011;16778;48.154;15.094;2023-04-03T13:49:36;2.03;;;1.40;;
8161;SDS011;16778;48.154;15.094;2023-04-03T13:52:20;1.43;;;1.00;;
8161;SDS011;16778;48.154;15.094;2023-04-03T13:54:55;1.50;;;1.23;;
8161;SDS011;16778;48.154;15.094;2023-04-03T13:57:25;1.77;;;1.00;;
8161;SDS011;16778;48.154;15.094;2023-04-03T13:59:51;2.57;;;0.90;;
8161;SDS011;16778;48.154;15.094;2023-04-03T14:07:14;2.77;;;1.50;;
8161;SDS011;16778;48.154;15.094;2023-04-03T14:09:41;9.73;;;1.23;;
8161;SDS011;16778;48.154;15.094;2023-04-03T14:12:08;1.30;;;1.03;;
8161;SDS011;16778;48.154;15.094;2023-04-03T14:14:40;4.23;;;1.57;;
8161;SDS011;16778;48.154;15.094;2023-04-03T14:17:14;1.60;;;1.20;;
8161;SDS011;16778;48.154;15.094;2023-04-03T14:19:41;2.17;;;1.20;;
8161;SDS011;16778;48.154;15.094;2023-04-03T14:22:15;1.60;;;1.00;;
8161;SDS011;16778;48.154;15.094;2023-04-03T14:24:48;1.20;;;0.93;;
8161;SDS011;16778;48.154;15.094;2023-04-03T14:27:25;2.13;;;1.13;;
8161;SDS011;16778;48.154;15.094;2023-04-03T14:29:52;2.37;;;1.27;;
8161;SDS011;16778;48.154;15.094;2023-04-03T14:32:20;1.63;;;1.13;;
8161;SDS011;16778;48.154;15.094;2023-04-03T14:34:46;2.33;;;1.30;;
8161;SDS011;16778;48.154;15.094;2023-04-03T14:37:13;2.77;;;1.57;;
8161;SDS011;16778;48.154;15.094;2023-04-03T14:39:41;2.50;;;1.43;;
8161;SDS011;16778;48.154;15.094;2023-04-03T14:42:15;2.33;;;1.10;;
8161;SDS011;16778;48.154;15.094;2023-04-03T14:44:43;2.60;;;1.33;;
8161;SDS011;16778;48.154;15.094;2023-04-03T14:47:10;1.83;;;1.30;;
8161;SDS011;16778;48.154;15.094;2023-04-03T14:49:40;3.27;;;0.93;;
8161;SDS011;16778;48.154;15.094;2023-04-03T14:52:06;1.07;;;0.90;;
8161;SDS011;16778;48.154;15.094;2023-04-03T14:54:34;1.70;;;0.90;;
8161;SDS011;16778;48.154;15.094;2023-04-03T14:57:00;1.93;;;1.10;;
8161;SDS011;16778;48.154;15.094;2023-04-03T14:59:27;2.97;;;1.13;;
8161;SDS011;16778;48.154;15.094;2023-04-03T15:01:54;2.30;;;1.27;;
8161;SDS011;16778;48.154;15.094;2023-04-03T15:04:20;2.13;;;1.30;;
8161;SDS011;16778;48.154;15.094;2023-04-03T15:06:50;1.80;;;1.20;;
8161;SDS011;16778;48.154;15.094;2023-04-03T15:11:46;1.80;;;1.03;;
8161;SDS011;16778;48.154;15.094;2023-04-03T15:14:13;0.90;;;0.67;;
8161;SDS011;16778;48.154;15.094;2023-04-03T15:16:38;1.20;;;0.80;;
8161;SDS011;16778;48.154;15.094;2023-04-03T15:19:04;3.27;;;1.20;;
8161;SDS011;16778;48.154;15.094;2023-04-03T15:21:30;3.40;;;1.20;;
8161;SDS011;16778;48.154;15.094;2023-04-03T15:23:56;2.23;;;1.43;;
8161;SDS011;16778;48.154;15.094;2023-04-03T15:26:21;2.73;;;1.10;;
8161;SDS011;16778;48.154;15.094;2023-04-03T15:28:47;1.60;;;1.40;;
8161;SDS011;16778;48.154;15.094;2023-04-03T15:31:13;1.13;;;0.90;;
8161;SDS011;16778;48.154;15.094;2023-04-03T15:33:38;1.73;;;1.13;;
8161;SDS011;16778;48.154;15.094;2023-04-03T15:36:04;1.57;;;1.37;;
8161;SDS011;16778;48.154;15.094;2023-04-03T15:38:30;1.80;;;1.00;;
8161;SDS011;16778;48.154;15.094;2023-04-03T15:40:56;3.40;;;1.30;;
8161;SDS011;16778;48.154;15.094;2023-04-03T15:43:22;1.17;;;0.87;;
8161;SDS011;16778;48.154;15.094;2023-04-03T15:45:47;1.93;;;1.30;;
8161;SDS011;16778;48.154;15.094;2023-04-03T15:48:14;2.00;;;1.10;;
8161;SDS011;16778;48.154;15.094;2023-04-03T15:50:40;1.97;;;0.83;;
8161;SDS011;16778;48.154;15.094;2023-04-03T15:53:06;3.87;;;1.20;;
8161;SDS011;16778;48.154;15.094;2023-04-03T15:55:33;1.50;;;1.13;;
8161;SDS011;16778;48.154;15.094;2023-04-03T15:58:00;3.60;;;1.13;;
8161;SDS011;16778;48.154;15.094;2023-04-03T16:00:26;2.57;;;1.10;;
8161;SDS011;16778;48.154;15.094;2023-04-03T16:02:53;2.50;;;1.33;;
8161;SDS011;16778;48.154;15.094;2023-04-03T16:05:22;4.13;;;1.53;;
8161;SDS011;16778;48.154;15.094;2023-04-03T16:07:48;1.43;;;0.93;;
8161;SDS011;16778;48.154;15.094;2023-04-03T16:10:14;2.80;;;1.60;;
8161;SDS011;16778;48.154;15.094;2023-04-03T16:12:41;3.20;;;1.63;;
8161;SDS011;16778;48.154;15.094;2023-04-03T16:15:07;1.50;;;1.10;;
8161;SDS011;16778;48.154;15.094;2023-04-03T16:17:34;2.10;;;1.07;;
8161;SDS011;16778;48.154;15.094;2023-04-03T16:20:01;5.40;;;1.63;;
8161;SDS011;16778;48.154;15.094;2023-04-03T16:22:28;4.40;;;1.27;;
8161;SDS011;16778;48.154;15.094;2023-04-03T16:24:54;5.33;;;0.93;;
8161;SDS011;16778;48.154;15.094;2023-04-03T16:27:21;1.73;;;1.10;;
8161;SDS011;16778;48.154;15.094;2023-04-03T16:29:47;1.50;;;0.90;;
8161;SDS011;16778;48.154;15.094;2023-04-03T16:32:13;2.47;;;1.07;;
8161;SDS011;16778;48.154;15.094;2023-04-03T16:34:39;2.20;;;1.07;;
8161;SDS011;16778;48.154;15.094;2023-04-03T16:37:05;2.03;;;0.90;;
8161;SDS011;16778;48.154;15.094;2023-04-03T16:39:33;1.60;;;1.07;;
8161;SDS011;16778;48.154;15.094;2023-04-03T16:41:59;1.13;;;0.70;;
8161;SDS011;16778;48.154;15.094;2023-04-03T16:44:25;1.87;;;1.07;;
8161;SDS011;16778;48.154;15.094;2023-04-03T16:46:51;0.97;;;0.80;;